KRNT - Renton
Updated: Tue, 19-Jun-2018 2:53am PDT

 Wind from S
Wind: S 6 mph , 9 km/h
Temperature: 63°F , 17°C
Dew Point: 55°F , 13°C
Humidity: 77%
Barometer: 30.04 inHg , 1017.3 hPa
Visibility: 10 miles , 16 km
2018/06/19 09:53 KRNT 190953Z AUTO 17005KT 10SM CLR 17/13 A3004 RMK AO2 SLP179 T01670128
KBFI - Seattle-Boeing
Updated: Tue, 19-Jun-2018 2:53am PDT

 Wind from SSE
Wind: SSE 9 mph , 15 km/h
Temperature: 59°F , 15°C
Dew Point: 54°F , 12°C
Humidity: 82%
Barometer: 30.04 inHg , 1017.3 hPa
Visibility: 10 miles , 16 km
2018/06/19 09:53 KBFI 190953Z 15008KT 10SM CLR 15/12 A3004 RMK AO2 SLP173 T01500122 $
 
KSEA - Seattle
Updated: Tue, 19-Jun-2018 2:53am PDT

 Wind from S
Wind: S 7 mph , 11 km/h
Temperature: 57°F , 14°C
Dew Point: 54°F , 12°C
Humidity: 88%
Barometer: 30.05 inHg , 1017.6 hPa
Visibility: 10 miles , 16 km
Cloud details: 15000 ft
25000 ft
2018/06/19 09:53 KSEA 190953Z 18006KT 10SM FEW150 SCT250 14/12 A3005 RMK AO2 SLP180 T01440122
KSMP - Stampede Pass
Updated: Tue, 19-Jun-2018 2:56am PDT

 Wind from ENE
Wind: ENE 3 mph , 6 km/h
Temperature: 55°F , 13°C
Dew Point: 46°F , 8°C
Humidity: 72%
Barometer: 30.14 inHg , 1020.7 hPa
Visibility: 10 miles , 16 km
2018/06/19 09:56 KSMP 190956Z AUTO 06003KT 10SM CLR 13/08 A3014 RMK AO2 SLP178 T01280083